createdAt,value
2018-05-13T00:00:48.219Z,8.20
2018-05-13T00:03:16.428Z,8.77
2018-05-13T00:05:43.850Z,7.87
2018-05-13T00:08:11.610Z,8.67
2018-05-13T00:10:39.792Z,7.67
2018-05-13T00:13:07.243Z,8.73
2018-05-13T00:15:34.684Z,8.80
2018-05-13T00:18:02.106Z,9.60
2018-05-13T00:20:29.571Z,8.83
2018-05-13T00:22:57.000Z,8.70
2018-05-13T00:25:25.199Z,8.00
2018-05-13T00:27:52.915Z,7.80
2018-05-13T00:30:20.348Z,7.80
2018-05-13T00:32:47.771Z,7.87
2018-05-13T00:35:15.208Z,7.63
2018-05-13T00:37:42.635Z,7.70
2018-05-13T00:40:10.095Z,7.90
2018-05-13T00:42:37.555Z,9.07
2018-05-13T00:45:04.991Z,8.60
2018-05-13T00:47:32.487Z,7.97
2018-05-13T00:49:59.860Z,8.93
2018-05-13T00:52:27.302Z,8.60
2018-05-13T00:54:55.535Z,9.90
2018-05-13T00:57:22.960Z,9.57
2018-05-13T00:59:50.512Z,9.83
2018-05-13T01:02:17.938Z,9.27
2018-05-13T01:04:45.385Z,8.70
2018-05-13T01:07:12.809Z,8.53
2018-05-13T01:09:40.569Z,8.30
2018-05-13T01:12:08.023Z,8.83
2018-05-13T01:14:35.466Z,9.33
2018-05-13T01:17:02.899Z,8.67
2018-05-13T01:19:30.321Z,9.30
2018-05-13T01:21:57.762Z,8.40
2018-05-13T01:24:25.208Z,8.50
2018-05-13T01:26:52.635Z,9.67
2018-05-13T01:29:20.073Z,9.17
2018-05-13T01:31:47.539Z,10.07
2018-05-13T01:34:15.443Z,9.17
2018-05-13T01:36:42.877Z,8.50
2018-05-13T01:39:10.302Z,8.63
2018-05-13T01:41:38.071Z,8.63
2018-05-13T01:44:05.524Z,8.27
2018-05-13T01:46:32.954Z,8.13
2018-05-13T01:49:00.403Z,7.90
2018-05-13T01:51:27.843Z,7.37
2018-05-13T01:53:55.296Z,7.53
2018-05-13T01:56:22.725Z,7.40
2018-05-13T01:58:50.158Z,7.87
2018-05-13T02:01:18.357Z,9.93
2018-05-13T02:03:45.787Z,8.63
2018-05-13T02:06:13.241Z,9.87
2018-05-13T02:08:40.747Z,9.03
2018-05-13T02:11:08.125Z,15.03
2018-05-13T02:13:35.598Z,23.70
2018-05-13T02:16:03.050Z,16.77
2018-05-13T02:18:31.248Z,13.20
2018-05-13T02:20:58.703Z,12.57
2018-05-13T02:23:26.653Z,13.07
2018-05-13T02:25:54.839Z,9.10
2018-05-13T02:28:22.271Z,7.57
2018-05-13T02:30:50.766Z,7.70
2018-05-13T02:33:18.198Z,8.33
2018-05-13T02:35:45.619Z,8.40
2018-05-13T02:38:13.065Z,7.63
2018-05-13T02:40:40.494Z,7.03
2018-05-13T02:43:07.951Z,8.13
2018-05-13T02:45:35.360Z,7.87
2018-05-13T02:48:02.801Z,9.00
2018-05-13T02:50:30.243Z,9.33
2018-05-13T02:52:57.672Z,9.10
2018-05-13T02:55:25.124Z,9.07
2018-05-13T02:57:52.561Z,10.10
2018-05-13T03:00:19.994Z,9.47
2018-05-13T03:02:47.444Z,10.03
2018-05-13T03:05:14.863Z,9.57
2018-05-13T03:07:42.301Z,10.60
2018-05-13T03:10:09.743Z,10.93
2018-05-13T03:12:37.354Z,10.67
2018-05-13T03:15:04.776Z,11.53
2018-05-13T03:17:32.207Z,11.20
2018-05-13T03:19:59.661Z,11.17
2018-05-13T03:22:27.087Z,11.07
2018-05-13T03:24:54.515Z,10.63
2018-05-13T03:27:21.964Z,10.83
2018-05-13T03:29:49.395Z,11.40
2018-05-13T03:32:16.832Z,10.90
2018-05-13T03:34:44.289Z,11.70
2018-05-13T03:37:11.754Z,10.73
2018-05-13T03:39:39.198Z,10.50
2018-05-13T03:42:06.643Z,10.00
2018-05-13T03:44:34.859Z,11.53
2018-05-13T03:47:02.550Z,10.83
2018-05-13T03:49:29.996Z,10.73
2018-05-13T03:51:57.426Z,10.87
2018-05-13T03:54:24.886Z,10.20
2018-05-13T03:56:52.311Z,10.33
2018-05-13T03:59:19.752Z,9.97
2018-05-13T04:01:47.186Z,10.67
2018-05-13T04:04:15.385Z,9.67
2018-05-13T04:06:42.826Z,10.13
2018-05-13T04:09:21.924Z,10.50
2018-05-13T04:12:01.140Z,9.83
2018-05-13T04:14:41.314Z,9.97
2018-05-13T04:17:08.850Z,10.27
2018-05-13T04:19:36.223Z,10.17
2018-05-13T04:22:03.674Z,9.40
2018-05-13T04:24:31.118Z,10.63
2018-05-13T04:26:58.619Z,9.43
2018-05-13T04:29:26.103Z,9.90
2018-05-13T04:31:54.291Z,9.57
2018-05-13T04:34:21.755Z,9.40
2018-05-13T04:36:49.964Z,9.07
2018-05-13T04:39:17.391Z,9.87
2018-05-13T04:41:44.850Z,9.20
2018-05-13T04:44:12.281Z,9.50
2018-05-13T04:46:40.026Z,9.83
2018-05-13T04:49:07.515Z,10.60
2018-05-13T04:51:35.714Z,9.53
2018-05-13T04:54:03.926Z,10.07
2018-05-13T04:56:32.132Z,9.30
2018-05-13T04:58:59.618Z,9.30
2018-05-13T05:01:27.055Z,9.10
2018-05-13T05:03:54.766Z,8.77
2018-05-13T05:06:22.231Z,9.67
2018-05-13T05:08:49.665Z,9.60
2018-05-13T05:11:17.100Z,9.60
2018-05-13T05:13:44.523Z,9.27
2018-05-13T05:16:11.966Z,7.60
2018-05-13T05:18:39.529Z,9.03
2018-05-13T05:21:07.743Z,9.33
2018-05-13T05:23:35.175Z,9.13
2018-05-13T05:26:02.894Z,9.67
2018-05-13T05:28:30.318Z,8.67
2018-05-13T05:30:57.807Z,8.90
2018-05-13T05:33:25.313Z,9.37
2018-05-13T05:35:52.853Z,9.37
2018-05-13T05:38:20.523Z,9.00
2018-05-13T05:40:47.930Z,9.00
2018-05-13T05:43:15.389Z,9.03
2018-05-13T05:45:42.825Z,9.30
2018-05-13T05:48:10.408Z,9.10
2018-05-13T05:50:37.836Z,9.07
2018-05-13T05:53:05.264Z,8.83
2018-05-13T05:55:32.698Z,8.80
2018-05-13T05:58:00.202Z,8.70
2018-05-13T06:00:27.654Z,7.93
2018-05-13T06:02:55.087Z,8.23
2018-05-13T06:05:23.300Z,9.10
2018-05-13T06:07:50.742Z,8.40
2018-05-13T06:10:18.186Z,9.73
2018-05-13T06:12:45.919Z,8.23
2018-05-13T06:15:13.376Z,7.93
2018-05-13T06:17:40.814Z,8.63
2018-05-13T06:20:08.261Z,7.97
2018-05-13T06:22:35.695Z,7.80
2018-05-13T06:25:03.148Z,7.67
2018-05-13T06:27:30.571Z,7.30
2018-05-13T06:29:58.010Z,8.27
2018-05-13T06:32:25.467Z,7.47
2018-05-13T06:34:52.893Z,7.43
2018-05-13T06:37:20.599Z,8.57
2018-05-13T06:39:48.025Z,7.07
2018-05-13T06:42:15.458Z,7.60
2018-05-13T06:44:42.910Z,6.93
2018-05-13T06:47:10.339Z,6.80
2018-05-13T06:49:37.780Z,7.30
2018-05-13T06:52:05.227Z,7.30
2018-05-13T06:54:32.672Z,6.80
2018-05-13T06:57:00.098Z,7.43
2018-05-13T06:59:27.583Z,7.73
2018-05-13T07:01:55.424Z,6.93
2018-05-13T07:04:23.106Z,7.10
2018-05-13T07:06:50.534Z,8.00
2018-05-13T07:09:17.991Z,6.80
2018-05-13T07:11:45.495Z,5.90
2018-05-13T07:14:12.991Z,6.50
2018-05-13T07:16:40.456Z,6.80
2018-05-13T07:19:07.950Z,6.27
2018-05-13T07:21:35.690Z,5.67
2018-05-13T07:24:03.170Z,5.63
2018-05-13T07:26:30.598Z,6.43
2018-05-13T07:28:58.061Z,5.57
2018-05-13T07:31:25.495Z,5.30
2018-05-13T07:33:52.949Z,5.87
2018-05-13T07:36:21.160Z,4.87
2018-05-13T07:38:49.515Z,5.47
2018-05-13T07:41:16.959Z,5.53
2018-05-13T07:43:44.732Z,5.63
2018-05-13T07:46:12.179Z,4.77
2018-05-13T07:48:39.606Z,5.70
2018-05-13T07:51:07.049Z,5.83
2018-05-13T07:53:34.477Z,5.70
2018-05-13T07:56:02.259Z,5.70
2018-05-13T07:58:29.687Z,5.67
2018-05-13T08:00:57.125Z,5.73
2018-05-13T08:03:24.578Z,6.23
2018-05-13T08:05:52.007Z,5.70
2018-05-13T08:08:19.711Z,6.00
2018-05-13T08:10:47.162Z,5.70
2018-05-13T08:13:14.591Z,5.57
2018-05-13T08:15:42.138Z,5.83
2018-05-13T08:18:09.604Z,5.33
2018-05-13T08:20:37.048Z,5.50
2018-05-13T08:23:04.568Z,5.57
2018-05-13T08:25:32.184Z,5.17
2018-05-13T08:27:59.610Z,5.37
2018-05-13T08:30:27.088Z,6.07
2018-05-13T08:32:54.543Z,5.77
2018-05-13T08:35:22.097Z,5.87
2018-05-13T08:37:49.888Z,5.47
2018-05-13T08:40:17.303Z,5.10
2018-05-13T08:42:44.761Z,5.93
2018-05-13T08:45:12.211Z,5.80
2018-05-13T08:47:39.647Z,5.93
2018-05-13T08:50:07.148Z,5.97
2018-05-13T08:52:34.610Z,5.80
2018-05-13T08:55:02.055Z,6.37
2018-05-13T08:57:30.407Z,6.17
2018-05-13T08:59:57.957Z,6.50
2018-05-13T09:02:25.425Z,5.97
2018-05-13T09:04:52.935Z,6.10
2018-05-13T09:07:20.380Z,6.60
2018-05-13T09:09:48.620Z,6.53
2018-05-13T09:12:16.116Z,6.00
2018-05-13T09:14:43.644Z,6.27
2018-05-13T09:17:11.067Z,5.80
2018-05-13T09:19:38.518Z,5.67
2018-05-13T09:22:05.951Z,5.53
2018-05-13T09:24:33.413Z,6.07
2018-05-13T09:27:00.838Z,5.80
2018-05-13T09:29:28.322Z,5.70
2018-05-13T09:31:55.776Z,5.40
2018-05-13T09:34:23.319Z,4.90
2018-05-13T09:36:50.784Z,5.17
2018-05-13T09:39:18.274Z,5.20
2018-05-13T09:41:45.682Z,5.57
2018-05-13T09:44:13.152Z,5.63
2018-05-13T09:46:40.657Z,5.03
2018-05-13T09:49:08.085Z,5.00
2018-05-13T09:51:35.530Z,5.00
2018-05-13T09:54:03.019Z,5.57
2018-05-13T09:56:30.474Z,5.47
2018-05-13T09:58:57.983Z,5.23
2018-05-13T10:01:25.452Z,5.73
2018-05-13T10:03:52.890Z,5.80
2018-05-13T10:06:20.347Z,4.97
2018-05-13T10:08:48.548Z,5.40
2018-05-13T10:11:15.990Z,5.00
2018-05-13T10:13:43.450Z,4.73
2018-05-13T10:16:10.954Z,5.13
2018-05-13T10:18:38.391Z,5.67
2018-05-13T10:21:05.926Z,5.10
2018-05-13T10:23:34.347Z,5.10
2018-05-13T10:26:01.811Z,4.63
2018-05-13T10:28:29.317Z,5.13
2018-05-13T10:30:56.903Z,5.03
2018-05-13T10:33:24.359Z,5.30
2018-05-13T10:35:51.824Z,5.13
2018-05-13T10:38:19.255Z,4.93
2018-05-13T10:40:46.678Z,4.97
2018-05-13T10:43:14.126Z,5.23
2018-05-13T10:45:42.334Z,5.40
2018-05-13T10:48:09.793Z,5.63
2018-05-13T10:50:37.238Z,5.40
2018-05-13T10:53:04.676Z,5.60
2018-05-13T10:55:32.126Z,5.53
2018-05-13T10:58:00.337Z,5.53
2018-05-13T11:00:28.527Z,5.47
2018-05-13T11:02:55.992Z,5.80
2018-05-13T11:05:23.419Z,5.30
2018-05-13T11:07:50.862Z,5.57
2018-05-13T11:10:18.317Z,5.53
2018-05-13T11:12:45.770Z,5.93
2018-05-13T11:15:13.255Z,6.03
2018-05-13T11:17:41.706Z,5.73
2018-05-13T11:20:09.200Z,5.67
2018-05-13T11:22:36.677Z,5.63
2018-05-13T11:25:04.111Z,5.30
2018-05-13T11:27:31.587Z,5.23
2018-05-13T11:29:59.095Z,5.63
2018-05-13T11:32:26.539Z,5.43
2018-05-13T11:34:53.973Z,6.83
2018-05-13T11:37:21.427Z,7.70
2018-05-13T11:39:48.934Z,7.87
2018-05-13T11:42:16.339Z,7.43
2018-05-13T11:44:43.771Z,7.83
2018-05-13T11:47:11.227Z,8.47
2018-05-13T11:49:38.656Z,8.30
2018-05-13T11:52:06.094Z,8.10
2018-05-13T11:54:33.524Z,8.10
2018-05-13T11:57:00.987Z,7.07
2018-05-13T11:59:28.470Z,7.90
2018-05-13T12:01:55.865Z,8.77
2018-05-13T12:04:23.325Z,9.70
2018-05-13T12:06:50.754Z,10.10
2018-05-13T12:09:18.201Z,10.07
2018-05-13T12:11:45.630Z,9.43
2018-05-13T12:14:13.069Z,10.33
2018-05-13T12:16:40.515Z,10.57
2018-05-13T12:19:07.944Z,9.73
2018-05-13T12:21:35.388Z,10.73
2018-05-13T12:24:04.122Z,11.10
2018-05-13T12:26:31.571Z,9.93
2018-05-13T12:28:59.050Z,10.00
2018-05-13T12:31:26.471Z,10.70
2018-05-13T12:33:53.942Z,10.23
2018-05-13T12:36:21.396Z,10.30
2018-05-13T12:38:48.834Z,10.20
2018-05-13T12:41:16.311Z,10.43
2018-05-13T12:43:43.763Z,10.57
2018-05-13T12:46:11.214Z,10.30
2018-05-13T12:48:38.674Z,12.17
2018-05-13T12:51:06.140Z,13.13
2018-05-13T12:53:33.839Z,11.03
2018-05-13T12:56:01.279Z,12.87
2018-05-13T12:58:29.600Z,11.73
2018-05-13T13:00:57.178Z,12.80
2018-05-13T13:03:24.618Z,12.23
2018-05-13T13:05:52.066Z,13.97
2018-05-13T13:08:19.495Z,14.67
2018-05-13T13:10:46.949Z,13.47
2018-05-13T13:13:14.394Z,14.50
2018-05-13T13:15:41.851Z,12.37
2018-05-13T13:18:09.307Z,16.17
2018-05-13T13:20:36.769Z,13.97
2018-05-13T13:23:04.208Z,11.70
2018-05-13T13:25:31.654Z,14.43
2018-05-13T13:27:59.896Z,15.00
2018-05-13T13:30:28.206Z,13.50
2018-05-13T13:32:55.562Z,13.73
2018-05-13T13:35:23.054Z,13.53
2018-05-13T13:37:50.483Z,13.03
2018-05-13T13:40:17.945Z,12.73
2018-05-13T13:42:45.377Z,13.40
2018-05-13T13:45:12.825Z,14.00
2018-05-13T13:47:40.274Z,14.50
2018-05-13T13:50:07.741Z,15.17
2018-05-13T13:52:35.243Z,14.13
2018-05-13T13:55:02.701Z,12.67
2018-05-13T13:57:30.130Z,11.43
2018-05-13T13:59:57.599Z,11.43
2018-05-13T14:02:25.058Z,11.77
2018-05-13T14:04:52.511Z,10.07
2018-05-13T14:07:19.989Z,9.70
2018-05-13T14:09:48.183Z,9.27
2018-05-13T14:12:16.460Z,10.70
2018-05-13T14:14:43.922Z,11.80
2018-05-13T14:17:11.384Z,9.87
2018-05-13T14:19:38.854Z,9.97
2018-05-13T14:22:06.355Z,11.57
2018-05-13T14:24:33.808Z,12.35
2018-05-13T14:27:01.311Z,12.80
2018-05-13T14:29:28.703Z,13.17
2018-05-13T14:31:56.190Z,12.43
2018-05-13T14:34:23.629Z,13.47
2018-05-13T14:36:51.074Z,12.07
2018-05-13T14:39:18.554Z,11.50
2018-05-13T14:41:45.997Z,11.10
2018-05-13T14:44:14.223Z,11.10
2018-05-13T14:46:41.678Z,12.30
2018-05-13T14:49:09.146Z,11.50
2018-05-13T14:51:36.578Z,12.47
2018-05-13T14:54:04.039Z,11.83
2018-05-13T14:56:31.488Z,13.30
2018-05-13T14:58:58.987Z,14.17
2018-05-13T15:01:26.407Z,13.73
2018-05-13T15:03:54.919Z,13.70
2018-05-13T15:06:22.416Z,14.10
2018-05-13T15:08:49.831Z,13.40
2018-05-13T15:11:17.299Z,14.57
2018-05-13T15:13:44.739Z,15.37
2018-05-13T15:16:12.235Z,14.33
2018-05-13T15:18:39.973Z,13.00
2018-05-13T15:21:07.407Z,15.77
2018-05-13T15:23:34.863Z,14.57
2018-05-13T15:26:02.477Z,15.77
2018-05-13T15:28:29.938Z,15.90
2018-05-13T15:30:57.391Z,16.27
2018-05-13T15:33:24.901Z,14.30
2018-05-13T15:35:52.752Z,14.97
2018-05-13T15:38:20.177Z,13.70
2018-05-13T15:40:47.626Z,14.30
2018-05-13T15:43:15.268Z,13.93
2018-05-13T15:45:42.624Z,13.93
2018-05-13T15:48:10.515Z,15.90
2018-05-13T15:50:37.901Z,14.30
2018-05-13T15:53:05.397Z,15.07
2018-05-13T15:55:33.006Z,14.43
2018-05-13T15:58:00.795Z,14.23
2018-05-13T16:00:28.295Z,13.03
2018-05-13T16:02:55.758Z,14.20
2018-05-13T16:05:23.201Z,13.03
2018-05-13T16:07:50.919Z,13.27
2018-05-13T16:10:19.125Z,13.10
2018-05-13T16:12:46.604Z,13.17
2018-05-13T16:15:14.043Z,11.83
2018-05-13T16:17:41.520Z,12.73
2018-05-13T16:20:09.019Z,12.37
2018-05-13T16:22:36.496Z,11.50
2018-05-13T16:25:03.971Z,11.60
2018-05-13T16:27:31.454Z,11.10
2018-05-13T16:29:58.918Z,11.37
2018-05-13T16:32:26.352Z,11.03
2018-05-13T16:34:53.919Z,10.60
2018-05-13T16:37:21.408Z,11.00
2018-05-13T16:39:48.860Z,10.13
2018-05-13T16:42:16.653Z,10.53
2018-05-13T16:44:44.095Z,11.60
2018-05-13T16:47:11.552Z,11.23
2018-05-13T16:49:38.984Z,11.37
2018-05-13T16:52:07.189Z,11.43
2018-05-13T16:54:34.714Z,10.43
2018-05-13T16:57:02.146Z,10.30
2018-05-13T16:59:29.678Z,10.37
2018-05-13T17:01:57.032Z,10.03
2018-05-13T17:04:25.248Z,9.37
2018-05-13T17:06:52.700Z,9.67
2018-05-13T17:09:20.215Z,9.20
2018-05-13T17:11:47.618Z,10.43
2018-05-13T17:14:15.062Z,9.67
2018-05-13T17:16:42.516Z,10.93
2018-05-13T17:19:10.711Z,11.73
2018-05-13T17:21:38.295Z,10.57
2018-05-13T17:24:05.748Z,10.87
2018-05-13T17:26:33.180Z,11.27
2018-05-13T17:29:00.771Z,11.70
2018-05-13T17:31:28.200Z,10.93
2018-05-13T17:33:55.645Z,13.37
2018-05-13T17:36:23.108Z,13.03
2018-05-13T17:38:50.566Z,12.60
2018-05-13T17:41:18.029Z,11.63
2018-05-13T17:43:45.474Z,11.93
2018-05-13T17:46:12.943Z,12.83
2018-05-13T17:48:40.390Z,12.23
2018-05-13T17:51:07.828Z,13.70
2018-05-13T17:53:35.332Z,12.83
2018-05-13T17:56:02.778Z,13.87
2018-05-13T17:58:30.207Z,12.87
2018-05-13T18:00:57.768Z,11.77
2018-05-13T18:03:25.188Z,12.93
2018-05-13T18:05:52.559Z,13.43
2018-05-13T18:08:20.087Z,14.40
2018-05-13T18:10:47.542Z,12.83
2018-05-13T18:13:15.083Z,13.13
2018-05-13T18:15:42.530Z,14.30
2018-05-13T18:18:10.302Z,14.40
2018-05-13T18:20:37.755Z,15.07
2018-05-13T18:23:05.962Z,15.23
2018-05-13T18:25:33.419Z,15.17
2018-05-13T18:28:00.878Z,15.80
2018-05-13T18:30:28.320Z,15.20
2018-05-13T18:32:55.764Z,15.23
2018-05-13T18:35:23.225Z,15.17
2018-05-13T18:37:51.432Z,13.77
2018-05-13T18:40:18.871Z,14.60
2018-05-13T18:42:47.251Z,13.47
2018-05-13T18:45:15.472Z,15.77
2018-05-13T18:47:42.903Z,15.43
2018-05-13T18:50:10.392Z,16.73
2018-05-13T18:52:37.780Z,16.37
2018-05-13T18:55:05.236Z,16.93
2018-05-13T18:57:32.816Z,19.90
2018-05-13T19:00:00.251Z,19.00
2018-05-13T19:02:27.712Z,19.90
2018-05-13T19:04:55.163Z,18.60
2018-05-13T19:07:22.611Z,18.27
2018-05-13T19:09:50.104Z,18.53
2018-05-13T19:12:17.585Z,18.93
2018-05-13T19:14:45.020Z,20.27
2018-05-13T19:17:12.468Z,20.00
2018-05-13T19:19:39.912Z,19.33
2018-05-13T19:22:07.338Z,20.70
2018-05-13T19:24:35.547Z,20.30
2018-05-13T19:27:02.979Z,20.93
2018-05-13T19:29:30.434Z,20.83
2018-05-13T19:31:57.868Z,21.80
2018-05-13T19:34:25.338Z,23.43
2018-05-13T19:36:52.846Z,23.07
2018-05-13T19:39:20.219Z,22.43
2018-05-13T19:41:47.801Z,21.33
2018-05-13T19:44:15.254Z,20.53
2018-05-13T19:46:42.735Z,21.10
2018-05-13T19:49:10.210Z,19.63
2018-05-13T19:51:37.658Z,21.10
2018-05-13T19:54:05.202Z,21.90
2018-05-13T19:56:32.575Z,21.13
2018-05-13T19:59:00.015Z,20.17
2018-05-13T20:01:27.607Z,21.43
2018-05-13T20:03:55.042Z,22.83
2018-05-13T20:06:22.548Z,21.47
2018-05-13T20:08:50.034Z,19.57
2018-05-13T20:11:17.620Z,18.60
2018-05-13T20:13:45.099Z,17.90
2018-05-13T20:16:12.543Z,17.97
2018-05-13T20:18:39.995Z,18.73
2018-05-13T20:21:07.434Z,18.23
2018-05-13T20:23:34.925Z,19.67
2018-05-13T20:26:02.351Z,18.80
2018-05-13T20:28:29.802Z,18.93
2018-05-13T20:30:57.530Z,18.73
2018-05-13T20:33:24.969Z,19.50
2018-05-13T20:35:52.460Z,19.63
2018-05-13T20:38:19.859Z,19.90
2018-05-13T20:40:47.348Z,19.93
2018-05-13T20:43:14.882Z,20.43
2018-05-13T20:45:42.319Z,19.33
2018-05-13T20:48:09.766Z,18.30
2018-05-13T20:50:37.207Z,18.73
2018-05-13T20:53:04.667Z,18.33
2018-05-13T20:55:32.131Z,15.90
2018-05-13T20:57:59.576Z,14.47
2018-05-13T21:00:27.041Z,15.53
2018-05-13T21:02:54.507Z,16.47
2018-05-13T21:05:21.966Z,14.80
2018-05-13T21:07:51.144Z,15.53
2018-05-13T21:10:18.577Z,15.13
2018-05-13T21:12:47.146Z,15.07
2018-05-13T21:15:15.355Z,15.53
2018-05-13T21:17:42.790Z,15.07
2018-05-13T21:20:10.240Z,13.80
2018-05-13T21:22:37.675Z,12.50
2018-05-13T21:25:05.120Z,12.80
2018-05-13T21:27:32.620Z,12.23
2018-05-13T21:30:00.008Z,12.87
2018-05-13T21:32:27.598Z,12.93
2018-05-13T21:34:55.047Z,12.03
2018-05-13T21:37:22.478Z,13.63
2018-05-13T21:39:49.939Z,11.80
2018-05-13T21:42:17.382Z,14.43
2018-05-13T21:44:44.822Z,13.33
2018-05-13T21:47:12.332Z,14.03
2018-05-13T21:49:39.679Z,13.60
2018-05-13T21:52:07.124Z,13.33
2018-05-13T21:54:34.574Z,14.23
2018-05-13T21:57:01.995Z,14.50
2018-05-13T21:59:29.443Z,13.93
2018-05-13T22:01:56.933Z,14.03
2018-05-13T22:04:24.321Z,14.20
2018-05-13T22:06:51.766Z,14.07
2018-05-13T22:09:19.226Z,14.27
2018-05-13T22:11:46.662Z,13.87
2018-05-13T22:14:14.098Z,13.83
2018-05-13T22:16:41.538Z,14.00
2018-05-13T22:19:08.974Z,14.27
2018-05-13T22:21:36.410Z,14.20
2018-05-13T22:24:03.860Z,14.87
2018-05-13T22:26:31.289Z,14.83
2018-05-13T22:28:58.763Z,13.13
2018-05-13T22:31:26.216Z,15.00
2018-05-13T22:33:53.643Z,13.60
2018-05-13T22:36:21.381Z,15.73
2018-05-13T22:38:48.822Z,14.57
2018-05-13T22:41:16.290Z,15.77
2018-05-13T22:43:43.746Z,14.33
2018-05-13T22:46:11.178Z,14.53
2018-05-13T22:48:38.632Z,15.17
2018-05-13T22:51:06.839Z,14.13
2018-05-13T22:53:34.272Z,13.77
2018-05-13T22:56:04.261Z,13.00
2018-05-13T22:58:33.263Z,11.97
2018-05-13T23:01:00.685Z,11.07
2018-05-13T23:03:28.135Z,9.93
2018-05-13T23:05:55.573Z,10.07
2018-05-13T23:08:23.008Z,10.20
2018-05-13T23:10:50.504Z,9.67
2018-05-13T23:13:17.891Z,9.97
2018-05-13T23:15:46.107Z,8.83
2018-05-13T23:18:13.559Z,8.57
2018-05-13T23:20:41.744Z,7.80
2018-05-13T23:23:09.191Z,8.17
2018-05-13T23:25:36.622Z,7.33
2018-05-13T23:28:04.058Z,6.87
2018-05-13T23:30:31.508Z,6.93
2018-05-13T23:32:58.926Z,7.10
2018-05-13T23:35:26.368Z,6.50
2018-05-13T23:37:53.804Z,6.20
2018-05-13T23:40:21.231Z,5.80
2018-05-13T23:42:48.646Z,6.33
2018-05-13T23:45:16.083Z,6.20
2018-05-13T23:47:43.536Z,6.80
2018-05-13T23:50:10.967Z,6.70
2018-05-13T23:52:38.400Z,6.83
2018-05-13T23:55:05.832Z,7.53
2018-05-13T23:57:33.267Z,7.00
